Canutillo, Texas
Current Conditions -  °F | °C
As of 7:58 AM on Monday 24 Nov 2014 (Local Time) from KBIF Reporting Station
Scattered Clouds Scattered Clouds  
Wind Chill: 32°   Ceiling: Unl
Heat Index: 38°   Visibility: 10mi
Dew Point:   Wind: 7mph
Humidity: 23%   Direction: 40°NE
Pressure: 30.18"   Gusts: NA
Location:  31.91°N, 106.6°W
Report Text: KBIF 241458Z 04006KT 10SM FEW160 SCT250 03/M16 A3018 RMK AO2A SLP204 T00321161 52016
Loading
Personal Weather Stations






























Interactive Weather Map New forecast layout! Learn more

10-Day Weather Forecast

Advertisements
Track Severe Weather on mobile